sensor_id;sensor_type;location;lat;lon;timestamp;temperature;humidity
44647;DHT22;56315;-33.902;151.160;2023-06-22T00:00:15;12.30;99.90
44647;DHT22;56315;-33.902;151.160;2023-06-22T00:02:42;12.70;99.90
44647;DHT22;56315;-33.902;151.160;2023-06-22T00:05:10;13.20;99.90
44647;DHT22;56315;-33.902;151.160;2023-06-22T00:07:37;13.40;99.90
44647;DHT22;56315;-33.902;151.160;2023-06-22T00:10:05;13.60;99.90
44647;DHT22;56315;-33.902;151.160;2023-06-22T00:12:32;13.60;99.90
44647;DHT22;56315;-33.902;151.160;2023-06-22T00:14:59;13.80;99.90
44647;DHT22;56315;-33.902;151.160;2023-06-22T00:17:27;13.90;99.90
44647;DHT22;56315;-33.902;151.160;2023-06-22T00:19:54;14.30;99.90
44647;DHT22;56315;-33.902;151.160;2023-06-22T00:22:22;15.00;99.90
44647;DHT22;56315;-33.902;151.160;2023-06-22T00:24:56;17.00;99.90
44647;DHT22;56315;-33.902;151.160;2023-06-22T00:27:23;17.40;99.90
44647;DHT22;56315;-33.902;151.160;2023-06-22T00:29:50;17.70;99.90
44647;DHT22;56315;-33.902;151.160;2023-06-22T00:32:18;17.50;99.70
44647;DHT22;56315;-33.902;151.160;2023-06-22T00:34:45;17.40;99.70
44647;DHT22;56315;-33.902;151.160;2023-06-22T00:37:12;16.90;99.90
44647;DHT22;56315;-33.902;151.160;2023-06-22T00:39:40;18.10;98.80
44647;DHT22;56315;-33.902;151.160;2023-06-22T00:42:07;19.90;96.40
44647;DHT22;56315;-33.902;151.160;2023-06-22T00:44:35;19.20;96.90
44647;DHT22;56315;-33.902;151.160;2023-06-22T00:47:02;18.80;96.90
44647;DHT22;56315;-33.902;151.160;2023-06-22T00:49:30;20.10;95.60
44647;DHT22;56315;-33.902;151.160;2023-06-22T00:51:58;19.50;96.30
44647;DHT22;56315;-33.902;151.160;2023-06-22T00:54:25;20.60;95.50
44647;DHT22;56315;-33.902;151.160;2023-06-22T00:56:54;21.60;93.90
44647;DHT22;56315;-33.902;151.160;2023-06-22T00:59:23;19.80;95.70
44647;DHT22;56315;-33.902;151.160;2023-06-22T01:01:50;18.90;96.30
44647;DHT22;56315;-33.902;151.160;2023-06-22T01:04:17;18.80;96.90
44647;DHT22;56315;-33.902;151.160;2023-06-22T01:09:35;16.90;99.50
44647;DHT22;56315;-33.902;151.160;2023-06-22T01:12:06;16.90;99.60
44647;DHT22;56315;-33.902;151.160;2023-06-22T01:14:43;17.60;98.70
44647;DHT22;56315;-33.902;151.160;2023-06-22T01:17:16;18.00;98.30
44647;DHT22;56315;-33.902;151.160;2023-06-22T01:19:48;18.10;98.00
44647;DHT22;56315;-33.902;151.160;2023-06-22T01:22:22;19.50;96.50
44647;DHT22;56315;-33.902;151.160;2023-06-22T01:30:51;19.80;95.90
44647;DHT22;56315;-33.902;151.160;2023-06-22T01:33:34;19.30;96.10
44647;DHT22;56315;-33.902;151.160;2023-06-22T01:36:03;19.70;97.20
44647;DHT22;56315;-33.902;151.160;2023-06-22T01:38:32;19.20;96.10
44647;DHT22;56315;-33.902;151.160;2023-06-22T01:41:01;18.90;98.00
44647;DHT22;56315;-33.902;151.160;2023-06-22T01:43:29;18.30;98.50
44647;DHT22;56315;-33.902;151.160;2023-06-22T01:45:59;17.30;99.30
44647;DHT22;56315;-33.902;151.160;2023-06-22T01:48:27;17.20;99.90
44647;DHT22;56315;-33.902;151.160;2023-06-22T01:50:55;17.10;99.90
44647;DHT22;56315;-33.902;151.160;2023-06-22T01:53:24;17.00;99.90
44647;DHT22;56315;-33.902;151.160;2023-06-22T01:55:52;17.50;99.90
44647;DHT22;56315;-33.902;151.160;2023-06-22T01:58:20;17.40;99.90
44647;DHT22;56315;-33.902;151.160;2023-06-22T02:01:12;17.30;99.90
44647;DHT22;56315;-33.902;151.160;2023-06-22T02:03:46;17.00;99.90
44647;DHT22;56315;-33.902;151.160;2023-06-22T02:06:29;17.10;99.90
44647;DHT22;56315;-33.902;151.160;2023-06-22T02:09:05;16.80;99.90
44647;DHT22;56315;-33.902;151.160;2023-06-22T02:11:36;16.70;99.90
44647;DHT22;56315;-33.902;151.160;2023-06-22T02:14:05;16.80;99.90
44647;DHT22;56315;-33.902;151.160;2023-06-22T02:16:33;18.90;99.00
44647;DHT22;56315;-33.902;151.160;2023-06-22T02:19:02;18.60;99.00
44647;DHT22;56315;-33.902;151.160;2023-06-22T02:21:32;18.70;98.80
44647;DHT22;56315;-33.902;151.160;2023-06-22T02:24:00;19.00;98.60
44647;DHT22;56315;-33.902;151.160;2023-06-22T02:26:28;18.70;98.70
44647;DHT22;56315;-33.902;151.160;2023-06-22T02:28:55;17.30;99.90
44647;DHT22;56315;-33.902;151.160;2023-06-22T02:31:23;17.20;99.90
44647;DHT22;56315;-33.902;151.160;2023-06-22T02:33:59;17.40;99.90
44647;DHT22;56315;-33.902;151.160;2023-06-22T02:36:27;17.40;99.90
44647;DHT22;56315;-33.902;151.160;2023-06-22T02:38:58;17.10;99.90
44647;DHT22;56315;-33.902;151.160;2023-06-22T02:41:27;16.90;99.90
44647;DHT22;56315;-33.902;151.160;2023-06-22T02:43:55;16.90;99.90
44647;DHT22;56315;-33.902;151.160;2023-06-22T02:46:22;16.80;99.90
44647;DHT22;56315;-33.902;151.160;2023-06-22T02:48:49;17.00;99.90
44647;DHT22;56315;-33.902;151.160;2023-06-22T02:51:16;17.20;99.90
44647;DHT22;56315;-33.902;151.160;2023-06-22T02:53:44;17.60;99.90
44647;DHT22;56315;-33.902;151.160;2023-06-22T02:56:11;18.00;99.90
44647;DHT22;56315;-33.902;151.160;2023-06-22T02:58:39;18.10;99.90
44647;DHT22;56315;-33.902;151.160;2023-06-22T03:01:07;18.10;99.90
44647;DHT22;56315;-33.902;151.160;2023-06-22T03:03:34;18.00;99.90
44647;DHT22;56315;-33.902;151.160;2023-06-22T03:06:01;18.00;99.90
44647;DHT22;56315;-33.902;151.160;2023-06-22T03:08:29;17.80;99.90
44647;DHT22;56315;-33.902;151.160;2023-06-22T03:10:56;17.80;99.90
44647;DHT22;56315;-33.902;151.160;2023-06-22T03:13:24;17.90;99.90
44647;DHT22;56315;-33.902;151.160;2023-06-22T03:15:51;17.60;99.90
44647;DHT22;56315;-33.902;151.160;2023-06-22T03:18:19;17.40;99.90
44647;DHT22;56315;-33.902;151.160;2023-06-22T03:20:48;17.30;99.90
44647;DHT22;56315;-33.902;151.160;2023-06-22T03:23:16;17.00;99.90
44647;DHT22;56315;-33.902;151.160;2023-06-22T03:25:43;16.60;99.90
44647;DHT22;56315;-33.902;151.160;2023-06-22T03:28:13;16.50;99.90
44647;DHT22;56315;-33.902;151.160;2023-06-22T03:30:40;16.60;99.90
44647;DHT22;56315;-33.902;151.160;2023-06-22T03:33:07;16.50;99.90
44647;DHT22;56315;-33.902;151.160;2023-06-22T03:35:35;16.30;99.90
44647;DHT22;56315;-33.902;151.160;2023-06-22T03:38:02;16.10;99.90
44647;DHT22;56315;-33.902;151.160;2023-06-22T03:40:29;15.90;99.90
44647;DHT22;56315;-33.902;151.160;2023-06-22T03:42:56;15.90;99.90
44647;DHT22;56315;-33.902;151.160;2023-06-22T03:45:24;16.10;99.90
44647;DHT22;56315;-33.902;151.160;2023-06-22T03:47:51;16.00;99.90
44647;DHT22;56315;-33.902;151.160;2023-06-22T03:50:18;16.00;99.90
44647;DHT22;56315;-33.902;151.160;2023-06-22T03:52:47;16.10;99.90
44647;DHT22;56315;-33.902;151.160;2023-06-22T03:55:14;16.10;99.90
44647;DHT22;56315;-33.902;151.160;2023-06-22T03:57:42;16.10;99.90
44647;DHT22;56315;-33.902;151.160;2023-06-22T04:00:10;16.10;99.90
44647;DHT22;56315;-33.902;151.160;2023-06-22T04:02:37;15.90;99.90
44647;DHT22;56315;-33.902;151.160;2023-06-22T04:05:05;15.90;99.90
44647;DHT22;56315;-33.902;151.160;2023-06-22T04:07:32;15.70;99.90
44647;DHT22;56315;-33.902;151.160;2023-06-22T04:09:59;15.60;99.90
44647;DHT22;56315;-33.902;151.160;2023-06-22T04:12:27;15.50;99.90
44647;DHT22;56315;-33.902;151.160;2023-06-22T04:14:54;15.50;99.90
44647;DHT22;56315;-33.902;151.160;2023-06-22T04:17:21;15.70;99.90
44647;DHT22;56315;-33.902;151.160;2023-06-22T04:19:51;15.70;99.90
44647;DHT22;56315;-33.902;151.160;2023-06-22T04:22:19;15.80;99.90
44647;DHT22;56315;-33.902;151.160;2023-06-22T04:24:46;15.80;99.90
44647;DHT22;56315;-33.902;151.160;2023-06-22T04:27:13;15.70;99.90
44647;DHT22;56315;-33.902;151.160;2023-06-22T04:29:40;15.60;99.90
44647;DHT22;56315;-33.902;151.160;2023-06-22T04:32:17;15.50;99.90
44647;DHT22;56315;-33.902;151.160;2023-06-22T04:34:45;15.30;99.90
44647;DHT22;56315;-33.902;151.160;2023-06-22T04:37:12;15.30;99.90
44647;DHT22;56315;-33.902;151.160;2023-06-22T04:39:42;15.30;99.90
44647;DHT22;56315;-33.902;151.160;2023-06-22T04:42:10;15.30;99.90
44647;DHT22;56315;-33.902;151.160;2023-06-22T04:44:37;15.20;99.90
44647;DHT22;56315;-33.902;151.160;2023-06-22T04:47:06;15.20;99.90
44647;DHT22;56315;-33.902;151.160;2023-06-22T04:49:35;15.30;99.90
44647;DHT22;56315;-33.902;151.160;2023-06-22T04:52:08;15.40;99.90
44647;DHT22;56315;-33.902;151.160;2023-06-22T04:54:37;15.40;99.90
44647;DHT22;56315;-33.902;151.160;2023-06-22T04:57:06;15.60;99.90
44647;DHT22;56315;-33.902;151.160;2023-06-22T04:59:37;15.60;99.90
44647;DHT22;56315;-33.902;151.160;2023-06-22T05:02:09;15.40;99.90
44647;DHT22;56315;-33.902;151.160;2023-06-22T05:04:36;15.30;99.90
44647;DHT22;56315;-33.902;151.160;2023-06-22T05:07:07;15.30;99.90
44647;DHT22;56315;-33.902;151.160;2023-06-22T05:09:34;15.50;99.90
44647;DHT22;56315;-33.902;151.160;2023-06-22T05:12:02;15.40;99.90
44647;DHT22;56315;-33.902;151.160;2023-06-22T05:14:31;15.30;99.90
44647;DHT22;56315;-33.902;151.160;2023-06-22T05:16:58;15.20;99.90
44647;DHT22;56315;-33.902;151.160;2023-06-22T05:19:26;15.00;99.90
44647;DHT22;56315;-33.902;151.160;2023-06-22T05:22:01;14.80;99.90
44647;DHT22;56315;-33.902;151.160;2023-06-22T05:24:28;14.70;99.90
44647;DHT22;56315;-33.902;151.160;2023-06-22T05:26:55;14.70;99.90
44647;DHT22;56315;-33.902;151.160;2023-06-22T05:29:22;14.80;99.90
44647;DHT22;56315;-33.902;151.160;2023-06-22T05:31:50;14.70;99.90
44647;DHT22;56315;-33.902;151.160;2023-06-22T05:34:17;14.60;99.90
44647;DHT22;56315;-33.902;151.160;2023-06-22T05:36:44;14.50;99.90
44647;DHT22;56315;-33.902;151.160;2023-06-22T05:39:13;14.50;99.90
44647;DHT22;56315;-33.902;151.160;2023-06-22T05:41:41;14.40;99.90
44647;DHT22;56315;-33.902;151.160;2023-06-22T05:44:11;14.50;99.90
44647;DHT22;56315;-33.902;151.160;2023-06-22T05:46:43;14.40;99.90
44647;DHT22;56315;-33.902;151.160;2023-06-22T05:49:13;14.40;99.90
44647;DHT22;56315;-33.902;151.160;2023-06-22T05:51:42;14.50;99.90
44647;DHT22;56315;-33.902;151.160;2023-06-22T05:54:09;14.50;99.90
44647;DHT22;56315;-33.902;151.160;2023-06-22T05:56:36;14.50;99.90
44647;DHT22;56315;-33.902;151.160;2023-06-22T05:59:04;14.40;99.90
44647;DHT22;56315;-33.902;151.160;2023-06-22T06:01:31;14.30;99.90
44647;DHT22;56315;-33.902;151.160;2023-06-22T06:04:03;14.20;99.90
44647;DHT22;56315;-33.902;151.160;2023-06-22T06:06:30;13.90;99.90
44647;DHT22;56315;-33.902;151.160;2023-06-22T06:08:58;13.50;99.90
44647;DHT22;56315;-33.902;151.160;2023-06-22T06:11:25;13.40;99.90
44647;DHT22;56315;-33.902;151.160;2023-06-22T06:13:53;13.30;99.90
44647;DHT22;56315;-33.902;151.160;2023-06-22T06:16:20;13.20;99.90
44647;DHT22;56315;-33.902;151.160;2023-06-22T06:18:47;13.20;99.90
44647;DHT22;56315;-33.902;151.160;2023-06-22T06:21:17;12.90;99.90
44647;DHT22;56315;-33.902;151.160;2023-06-22T06:23:44;12.70;99.90
44647;DHT22;56315;-33.902;151.160;2023-06-22T06:26:11;12.60;99.90
44647;DHT22;56315;-33.902;151.160;2023-06-22T06:28:38;12.50;99.90
44647;DHT22;56315;-33.902;151.160;2023-06-22T06:31:07;12.40;99.90
44647;DHT22;56315;-33.902;151.160;2023-06-22T06:33:35;12.40;99.90
44647;DHT22;56315;-33.902;151.160;2023-06-22T06:36:03;12.30;99.90
44647;DHT22;56315;-33.902;151.160;2023-06-22T06:38:31;12.10;99.90
44647;DHT22;56315;-33.902;151.160;2023-06-22T06:40:59;11.90;99.90
44647;DHT22;56315;-33.902;151.160;2023-06-22T06:43:26;11.90;99.90
44647;DHT22;56315;-33.902;151.160;2023-06-22T06:45:53;11.90;99.90
44647;DHT22;56315;-33.902;151.160;2023-06-22T06:48:20;11.90;99.90
44647;DHT22;56315;-33.902;151.160;2023-06-22T06:50:48;11.90;99.90
44647;DHT22;56315;-33.902;151.160;2023-06-22T06:53:15;11.90;99.90
44647;DHT22;56315;-33.902;151.160;2023-06-22T06:55:42;11.80;99.90
44647;DHT22;56315;-33.902;151.160;2023-06-22T06:58:11;11.70;99.90
44647;DHT22;56315;-33.902;151.160;2023-06-22T07:00:40;11.60;99.90
44647;DHT22;56315;-33.902;151.160;2023-06-22T07:03:08;11.70;99.90
44647;DHT22;56315;-33.902;151.160;2023-06-22T07:05:35;11.70;99.90
44647;DHT22;56315;-33.902;151.160;2023-06-22T07:08:02;11.70;99.90
44647;DHT22;56315;-33.902;151.160;2023-06-22T07:10:30;11.70;99.90
44647;DHT22;56315;-33.902;151.160;2023-06-22T07:12:57;11.70;99.90
44647;DHT22;56315;-33.902;151.160;2023-06-22T07:15:25;11.60;99.90
44647;DHT22;56315;-33.902;151.160;2023-06-22T07:17:52;11.60;99.90
44647;DHT22;56315;-33.902;151.160;2023-06-22T07:20:19;11.60;99.90
44647;DHT22;56315;-33.902;151.160;2023-06-22T07:22:46;11.60;99.90
44647;DHT22;56315;-33.902;151.160;2023-06-22T07:25:14;11.60;99.90
44647;DHT22;56315;-33.902;151.160;2023-06-22T07:27:57;11.50;99.90
44647;DHT22;56315;-33.902;151.160;2023-06-22T07:30:24;11.50;99.90
44647;DHT22;56315;-33.902;151.160;2023-06-22T07:32:52;11.50;99.90
44647;DHT22;56315;-33.902;151.160;2023-06-22T07:35:19;11.40;99.90
44647;DHT22;56315;-33.902;151.160;2023-06-22T07:37:46;11.50;99.90
44647;DHT22;56315;-33.902;151.160;2023-06-22T07:40:14;11.50;99.90
44647;DHT22;56315;-33.902;151.160;2023-06-22T07:42:41;11.50;99.90
44647;DHT22;56315;-33.902;151.160;2023-06-22T07:45:08;11.50;99.90
44647;DHT22;56315;-33.902;151.160;2023-06-22T07:47:36;11.50;99.90
44647;DHT22;56315;-33.902;151.160;2023-06-22T07:50:04;11.50;99.90
44647;DHT22;56315;-33.902;151.160;2023-06-22T07:52:31;11.50;99.90
44647;DHT22;56315;-33.902;151.160;2023-06-22T07:54:59;11.40;99.90
44647;DHT22;56315;-33.902;151.160;2023-06-22T07:57:26;11.50;99.90
44647;DHT22;56315;-33.902;151.160;2023-06-22T08:00:00;11.40;99.90
44647;DHT22;56315;-33.902;151.160;2023-06-22T08:02:30;11.40;99.90
44647;DHT22;56315;-33.902;151.160;2023-06-22T08:04:57;11.40;99.90
44647;DHT22;56315;-33.902;151.160;2023-06-22T08:07:25;11.40;99.90
44647;DHT22;56315;-33.902;151.160;2023-06-22T08:09:52;11.40;99.90
44647;DHT22;56315;-33.902;151.160;2023-06-22T08:12:19;11.40;99.90
44647;DHT22;56315;-33.902;151.160;2023-06-22T08:14:46;11.50;99.90
44647;DHT22;56315;-33.902;151.160;2023-06-22T08:17:14;11.50;99.90
44647;DHT22;56315;-33.902;151.160;2023-06-22T08:19:41;11.40;99.90
44647;DHT22;56315;-33.902;151.160;2023-06-22T08:22:08;11.50;99.90
44647;DHT22;56315;-33.902;151.160;2023-06-22T08:24:35;11.40;99.90
44647;DHT22;56315;-33.902;151.160;2023-06-22T08:27:03;11.40;99.90
44647;DHT22;56315;-33.902;151.160;2023-06-22T08:29:30;11.40;99.90
44647;DHT22;56315;-33.902;151.160;2023-06-22T08:31:57;11.50;99.90
44647;DHT22;56315;-33.902;151.160;2023-06-22T08:34:25;11.50;99.90
44647;DHT22;56315;-33.902;151.160;2023-06-22T08:36:54;11.50;99.90
44647;DHT22;56315;-33.902;151.160;2023-06-22T08:39:21;11.40;99.90
44647;DHT22;56315;-33.902;151.160;2023-06-22T08:41:49;11.40;99.90
44647;DHT22;56315;-33.902;151.160;2023-06-22T08:44:19;11.40;99.90
44647;DHT22;56315;-33.902;151.160;2023-06-22T08:46:46;11.40;99.90
44647;DHT22;56315;-33.902;151.160;2023-06-22T08:49:13;11.30;99.90
44647;DHT22;56315;-33.902;151.160;2023-06-22T08:51:41;11.40;99.90
44647;DHT22;56315;-33.902;151.160;2023-06-22T08:54:11;11.40;99.90
44647;DHT22;56315;-33.902;151.160;2023-06-22T08:56:38;11.40;99.90
44647;DHT22;56315;-33.902;151.160;2023-06-22T08:59:05;11.40;99.90
44647;DHT22;56315;-33.902;151.160;2023-06-22T09:01:34;11.40;99.90
44647;DHT22;56315;-33.902;151.160;2023-06-22T09:04:01;11.30;99.90
44647;DHT22;56315;-33.902;151.160;2023-06-22T09:06:30;11.40;99.90
44647;DHT22;56315;-33.902;151.160;2023-06-22T09:09:02;11.50;99.90
44647;DHT22;56315;-33.902;151.160;2023-06-22T09:11:30;11.40;99.90
44647;DHT22;56315;-33.902;151.160;2023-06-22T09:13:58;11.50;99.90
44647;DHT22;56315;-33.902;151.160;2023-06-22T09:16:25;11.50;99.90
44647;DHT22;56315;-33.902;151.160;2023-06-22T09:18:52;11.50;99.90
44647;DHT22;56315;-33.902;151.160;2023-06-22T09:21:19;11.50;99.90
44647;DHT22;56315;-33.902;151.160;2023-06-22T09:23:47;11.50;99.90
44647;DHT22;56315;-33.902;151.160;2023-06-22T09:26:21;11.40;99.90
44647;DHT22;56315;-33.902;151.160;2023-06-22T09:28:50;11.40;99.90
44647;DHT22;56315;-33.902;151.160;2023-06-22T09:31:18;11.50;99.90
44647;DHT22;56315;-33.902;151.160;2023-06-22T09:33:53;11.40;99.90
44647;DHT22;56315;-33.902;151.160;2023-06-22T09:36:21;11.50;99.90
44647;DHT22;56315;-33.902;151.160;2023-06-22T09:38:49;11.50;99.90
44647;DHT22;56315;-33.902;151.160;2023-06-22T09:41:25;11.50;99.90
44647;DHT22;56315;-33.902;151.160;2023-06-22T09:43:52;11.50;99.90
44647;DHT22;56315;-33.902;151.160;2023-06-22T09:46:19;11.50;99.90
44647;DHT22;56315;-33.902;151.160;2023-06-22T09:48:49;11.50;99.90
44647;DHT22;56315;-33.902;151.160;2023-06-22T09:51:16;11.40;99.90
44647;DHT22;56315;-33.902;151.160;2023-06-22T09:53:45;11.40;99.90
44647;DHT22;56315;-33.902;151.160;2023-06-22T09:56:13;11.30;99.90
44647;DHT22;56315;-33.902;151.160;2023-06-22T09:58:44;11.30;99.90
44647;DHT22;56315;-33.902;151.160;2023-06-22T10:01:13;11.30;99.90
44647;DHT22;56315;-33.902;151.160;2023-06-22T10:03:44;11.20;99.90
44647;DHT22;56315;-33.902;151.160;2023-06-22T10:06:11;11.20;99.90
44647;DHT22;56315;-33.902;151.160;2023-06-22T10:08:39;11.30;99.90
44647;DHT22;56315;-33.902;151.160;2023-06-22T10:11:07;11.40;99.90
44647;DHT22;56315;-33.902;151.160;2023-06-22T10:13:34;11.40;99.90
44647;DHT22;56315;-33.902;151.160;2023-06-22T10:16:02;11.40;99.90
44647;DHT22;56315;-33.902;151.160;2023-06-22T10:18:29;11.40;99.90
44647;DHT22;56315;-33.902;151.160;2023-06-22T10:20:57;11.40;99.90
44647;DHT22;56315;-33.902;151.160;2023-06-22T10:23:24;11.40;99.90
44647;DHT22;56315;-33.902;151.160;2023-06-22T10:25:52;11.40;99.90
44647;DHT22;56315;-33.902;151.160;2023-06-22T10:28:19;11.40;99.90
44647;DHT22;56315;-33.902;151.160;2023-06-22T10:30:47;11.40;99.90
44647;DHT22;56315;-33.902;151.160;2023-06-22T10:33:15;11.30;99.90
44647;DHT22;56315;-33.902;151.160;2023-06-22T10:35:43;11.40;99.90
44647;DHT22;56315;-33.902;151.160;2023-06-22T10:38:10;11.30;99.90
44647;DHT22;56315;-33.902;151.160;2023-06-22T10:40:38;11.20;99.90
44647;DHT22;56315;-33.902;151.160;2023-06-22T10:43:07;11.20;99.90
44647;DHT22;56315;-33.902;151.160;2023-06-22T10:45:34;11.30;99.90
44647;DHT22;56315;-33.902;151.160;2023-06-22T10:48:02;11.30;99.90
44647;DHT22;56315;-33.902;151.160;2023-06-22T10:50:29;11.40;99.90
44647;DHT22;56315;-33.902;151.160;2023-06-22T10:52:57;11.50;99.90
44647;DHT22;56315;-33.902;151.160;2023-06-22T10:55:24;11.50;99.90
44647;DHT22;56315;-33.902;151.160;2023-06-22T10:57:52;11.50;99.90
44647;DHT22;56315;-33.902;151.160;2023-06-22T11:00:19;11.50;99.90
44647;DHT22;56315;-33.902;151.160;2023-06-22T11:02:48;11.50;99.90
44647;DHT22;56315;-33.902;151.160;2023-06-22T11:05:15;11.50;99.90
44647;DHT22;56315;-33.902;151.160;2023-06-22T11:07:44;11.50;99.90
44647;DHT22;56315;-33.902;151.160;2023-06-22T11:10:12;11.50;99.90
44647;DHT22;56315;-33.902;151.160;2023-06-22T11:12:40;11.50;99.90
44647;DHT22;56315;-33.902;151.160;2023-06-22T11:15:09;11.40;99.90
44647;DHT22;56315;-33.902;151.160;2023-06-22T11:17:37;11.30;99.90
44647;DHT22;56315;-33.902;151.160;2023-06-22T11:20:05;11.30;99.90
44647;DHT22;56315;-33.902;151.160;2023-06-22T11:22:39;11.30;99.90
44647;DHT22;56315;-33.902;151.160;2023-06-22T11:25:07;11.30;99.90
44647;DHT22;56315;-33.902;151.160;2023-06-22T11:27:35;11.20;99.90
44647;DHT22;56315;-33.902;151.160;2023-06-22T11:30:03;11.20;99.90
44647;DHT22;56315;-33.902;151.160;2023-06-22T11:32:32;11.20;99.90
44647;DHT22;56315;-33.902;151.160;2023-06-22T11:34:59;11.10;99.90
44647;DHT22;56315;-33.902;151.160;2023-06-22T11:37:27;11.10;99.90
44647;DHT22;56315;-33.902;151.160;2023-06-22T11:39:55;11.10;99.90
44647;DHT22;56315;-33.902;151.160;2023-06-22T11:42:23;11.10;99.90
44647;DHT22;56315;-33.902;151.160;2023-06-22T11:44:52;11.10;99.90
44647;DHT22;56315;-33.902;151.160;2023-06-22T11:47:19;11.10;99.90
44647;DHT22;56315;-33.902;151.160;2023-06-22T11:49:47;11.20;99.90
44647;DHT22;56315;-33.902;151.160;2023-06-22T11:52:14;11.30;99.90
44647;DHT22;56315;-33.902;151.160;2023-06-22T11:54:44;11.10;99.90
44647;DHT22;56315;-33.902;151.160;2023-06-22T11:57:12;11.10;99.90
44647;DHT22;56315;-33.902;151.160;2023-06-22T11:59:39;11.10;99.90
44647;DHT22;56315;-33.902;151.160;2023-06-22T12:02:07;11.10;99.90
44647;DHT22;56315;-33.902;151.160;2023-06-22T12:04:36;11.10;99.90
44647;DHT22;56315;-33.902;151.160;2023-06-22T12:07:04;11.20;99.90
44647;DHT22;56315;-33.902;151.160;2023-06-22T12:09:32;11.20;99.90
44647;DHT22;56315;-33.902;151.160;2023-06-22T12:11:59;11.20;99.90
44647;DHT22;56315;-33.902;151.160;2023-06-22T12:14:26;11.20;99.90
44647;DHT22;56315;-33.902;151.160;2023-06-22T12:16:54;11.20;99.90
44647;DHT22;56315;-33.902;151.160;2023-06-22T12:19:22;11.20;99.90
44647;DHT22;56315;-33.902;151.160;2023-06-22T12:21:49;11.10;99.90
44647;DHT22;56315;-33.902;151.160;2023-06-22T12:24:16;11.20;99.90
44647;DHT22;56315;-33.902;151.160;2023-06-22T12:26:44;11.20;99.90
44647;DHT22;56315;-33.902;151.160;2023-06-22T12:29:12;11.20;99.90
44647;DHT22;56315;-33.902;151.160;2023-06-22T12:31:39;11.20;99.90
44647;DHT22;56315;-33.902;151.160;2023-06-22T12:34:08;11.20;99.90
44647;DHT22;56315;-33.902;151.160;2023-06-22T12:36:36;11.20;99.90
44647;DHT22;56315;-33.902;151.160;2023-06-22T12:39:04;11.20;99.90
44647;DHT22;56315;-33.902;151.160;2023-06-22T12:41:32;11.20;99.90
44647;DHT22;56315;-33.902;151.160;2023-06-22T12:43:59;11.10;99.90
44647;DHT22;56315;-33.902;151.160;2023-06-22T12:46:27;11.10;99.90
44647;DHT22;56315;-33.902;151.160;2023-06-22T12:48:54;11.10;99.90
44647;DHT22;56315;-33.902;151.160;2023-06-22T12:51:23;11.10;99.90
44647;DHT22;56315;-33.902;151.160;2023-06-22T12:53:50;11.20;99.90
44647;DHT22;56315;-33.902;151.160;2023-06-22T12:56:18;11.10;99.90
44647;DHT22;56315;-33.902;151.160;2023-06-22T12:58:46;11.20;99.90
44647;DHT22;56315;-33.902;151.160;2023-06-22T13:01:13;11.20;99.90
44647;DHT22;56315;-33.902;151.160;2023-06-22T13:03:42;11.20;99.90
44647;DHT22;56315;-33.902;151.160;2023-06-22T13:06:10;11.20;99.90
44647;DHT22;56315;-33.902;151.160;2023-06-22T13:08:38;11.30;99.90
44647;DHT22;56315;-33.902;151.160;2023-06-22T13:11:06;11.20;99.90
44647;DHT22;56315;-33.902;151.160;2023-06-22T13:13:34;11.30;99.90
44647;DHT22;56315;-33.902;151.160;2023-06-22T13:16:02;11.30;99.90
44647;DHT22;56315;-33.902;151.160;2023-06-22T13:18:29;11.20;99.90
44647;DHT22;56315;-33.902;151.160;2023-06-22T13:20:56;11.10;99.90
44647;DHT22;56315;-33.902;151.160;2023-06-22T13:23:24;11.20;99.90
44647;DHT22;56315;-33.902;151.160;2023-06-22T13:25:52;11.10;99.90
44647;DHT22;56315;-33.902;151.160;2023-06-22T13:28:19;11.10;99.90
44647;DHT22;56315;-33.902;151.160;2023-06-22T13:30:48;11.10;99.90
44647;DHT22;56315;-33.902;151.160;2023-06-22T13:33:16;11.10;99.90
44647;DHT22;56315;-33.902;151.160;2023-06-22T13:35:43;11.10;99.90
44647;DHT22;56315;-33.902;151.160;2023-06-22T13:38:11;11.10;99.90
44647;DHT22;56315;-33.902;151.160;2023-06-22T13:40:39;11.20;99.90
44647;DHT22;56315;-33.902;151.160;2023-06-22T13:43:07;11.20;99.90
44647;DHT22;56315;-33.902;151.160;2023-06-22T13:45:34;11.20;99.90
44647;DHT22;56315;-33.902;151.160;2023-06-22T13:48:02;11.20;99.90
44647;DHT22;56315;-33.902;151.160;2023-06-22T13:50:29;11.20;99.90
44647;DHT22;56315;-33.902;151.160;2023-06-22T13:52:57;11.20;99.90
44647;DHT22;56315;-33.902;151.160;2023-06-22T13:55:25;11.20;99.90
44647;DHT22;56315;-33.902;151.160;2023-06-22T13:57:53;11.20;99.90
44647;DHT22;56315;-33.902;151.160;2023-06-22T14:00:20;11.20;99.90
44647;DHT22;56315;-33.902;151.160;2023-06-22T14:02:48;11.20;99.90
44647;DHT22;56315;-33.902;151.160;2023-06-22T14:05:16;11.20;99.90
44647;DHT22;56315;-33.902;151.160;2023-06-22T14:07:44;11.30;99.90
44647;DHT22;56315;-33.902;151.160;2023-06-22T14:10:12;11.40;99.90
44647;DHT22;56315;-33.902;151.160;2023-06-22T14:12:39;11.40;99.90
44647;DHT22;56315;-33.902;151.160;2023-06-22T14:15:07;11.40;99.90
44647;DHT22;56315;-33.902;151.160;2023-06-22T14:17:34;11.40;99.90
44647;DHT22;56315;-33.902;151.160;2023-06-22T14:20:02;11.40;99.90
44647;DHT22;56315;-33.902;151.160;2023-06-22T14:22:30;11.40;99.90
44647;DHT22;56315;-33.902;151.160;2023-06-22T14:24:57;11.40;99.90
44647;DHT22;56315;-33.902;151.160;2023-06-22T14:27:25;11.30;99.90
44647;DHT22;56315;-33.902;151.160;2023-06-22T14:29:52;11.30;99.90
44647;DHT22;56315;-33.902;151.160;2023-06-22T14:32:20;11.30;99.90
44647;DHT22;56315;-33.902;151.160;2023-06-22T14:34:47;11.30;99.90
44647;DHT22;56315;-33.902;151.160;2023-06-22T14:37:16;11.30;99.90
44647;DHT22;56315;-33.902;151.160;2023-06-22T14:39:43;11.20;99.90
44647;DHT22;56315;-33.902;151.160;2023-06-22T14:42:11;11.20;99.90
44647;DHT22;56315;-33.902;151.160;2023-06-22T14:44:38;11.10;99.90
44647;DHT22;56315;-33.902;151.160;2023-06-22T14:47:05;11.10;99.90
44647;DHT22;56315;-33.902;151.160;2023-06-22T14:49:33;11.10;99.90
44647;DHT22;56315;-33.902;151.160;2023-06-22T14:52:02;11.10;99.90
44647;DHT22;56315;-33.902;151.160;2023-06-22T14:54:29;11.10;99.90
44647;DHT22;56315;-33.902;151.160;2023-06-22T14:56:57;11.10;99.90
44647;DHT22;56315;-33.902;151.160;2023-06-22T14:59:24;11.20;99.90
44647;DHT22;56315;-33.902;151.160;2023-06-22T15:01:51;11.20;99.90